Time,TemperatureF,DewpointF,PressureIn,WindDirection,WindDirectionDegrees,WindSpeedMPH,WindSpeedGustMPH,Humidity,HourlyPrecipIn,Conditions,Clouds,dailyrainin,SolarRadiationWatts/m^2,SoftwareType,DateUTC
2013-03-03 00:00:00,54.9,45.7,29.87,NE,38,6.0,8.0,71,0.00,,,0.00,0,Wunderground v.1.15,2013-03-02 22:00:00,
2013-03-03 00:25:00,54.8,45.6,29.86,NNE,26,6.0,6.0,71,0.00,,,0.00,0,Wunderground v.1.15,2013-03-02 22:25:00,
2013-03-03 00:55:00,54.9,46.4,29.85,NNE,15,5.0,6.0,73,0.00,,,0.00,0,Wunderground v.1.15,2013-03-02 22:55:00,
2013-03-03 01:25:00,55.3,46.8,29.84,NNE,33,6.0,12.0,73,0.00,,,0.00,0,Wunderground v.1.15,2013-03-02 23:25:00,
2013-03-03 01:50:00,54.9,47.1,29.83,NE,36,8.0,8.0,75,0.00,,,0.00,0,Wunderground v.1.15,2013-03-02 23:50:00,
2013-03-03 02:35:00,55.5,47.7,29.81,NNE,32,6.0,6.0,75,0.00,,,0.00,0,Wunderground v.1.15,2013-03-03 00:35:00,
2013-03-03 03:30:00,53.2,48.2,29.79,NNE,17,7.0,8.0,83,0.00,,,0.01,0,Wunderground v.1.15,2013-03-03 01:30:00,
2013-03-03 05:00:00,52.3,47.6,29.78,ENE,61,7.0,7.0,84,0.13,,,0.05,0,Wunderground v.1.15,2013-03-03 03:00:00,
2013-03-03 05:10:00,52.1,47.4,29.77,North,9,8.0,8.0,84,0.13,,,0.06,0,Wunderground v.1.15,2013-03-03 03:10:00,
2013-03-03 05:55:00,51.5,46.8,29.76,North,5,9.0,10.0,84,0.05,,,0.09,0,Wunderground v.1.15,2013-03-03 03:55:00,
2013-03-03 06:40:00,51.5,47.1,29.76,NE,39,9.0,9.0,85,0.07,,,0.13,0,Wunderground v.1.15,2013-03-03 04:40:00,
2013-03-03 07:45:00,51.0,46.3,29.76,NNE,17,8.0,12.0,84,0.07,,,0.18,5,Wunderground v.1.15,2013-03-03 05:45:00,
2013-03-03 07:55:00,51.1,46.4,29.76,NE,36,9.0,13.0,84,0.06,,,0.19,11,Wunderground v.1.15,2013-03-03 05:55:00,
2013-03-03 10:05:00,52.5,45.8,29.79,NNW,346,11.0,12.0,78,0.00,,,0.21,95,Wunderground v.1.15,2013-03-03 08:05:00,
2013-03-03 10:45:00,53.2,44.8,29.79,NNW,335,13.0,14.0,73,0.00,,,0.21,229,Wunderground v.1.15,2013-03-03 08:45:00,
2013-03-03 11:50:00,54.7,43.2,29.81,NNE,19,11.0,14.0,65,0.00,,,0.21,366,Wunderground v.1.15,2013-03-03 09:50:00,
2013-03-03 12:50:00,55.9,42.2,29.82,NNW,342,11.0,14.0,60,0.00,,,0.22,378,Wunderground v.1.15,2013-03-03 10:50:00,
2013-03-03 13:35:00,56.0,41.9,29.82,NNE,26,13.0,14.0,59,0.00,,,0.22,649,Wunderground v.1.15,2013-03-03 11:35:00,
2013-03-03 16:05:00,55.7,39.8,29.84,NE,34,8.0,8.0,55,0.00,,,0.22,309,Wunderground v.1.15,2013-03-03 14:05:00,
2013-03-03 16:55:00,56.0,39.6,29.86,NNW,346,7.0,7.0,54,0.00,,,0.22,237,Wunderground v.1.15,2013-03-03 14:55:00,
2013-03-03 18:00:00,53.8,38.0,29.88,NE,42,6.0,6.0,55,0.00,,,0.22,25,Wunderground v.1.15,2013-03-03 16:00:00,
2013-03-03 20:35:00,51.2,38.6,29.94,NNW,347,2.0,2.0,62,0.00,,,0.22,0,Wunderground v.1.15,2013-03-03 18:35:00,
2013-03-03 22:20:00,50.5,39.2,29.96,North,349,1.0,1.0,65,0.00,,,0.22,0,Wunderground v.1.15,2013-03-03 20:20:00,
2013-03-03 23:40:00,49.7,40.3,29.96,North,11,1.0,1.0,70,0.00,,,0.22,0,Wunderground v.1.15,2013-03-03 21:40:00,